sensor_id;sensor_type;location;lat;lon;timestamp;P1;durP1;ratioP1;P2;durP2;ratioP2
23539;SDS011;11947;50.810;4.394;2022-07-29T00:00:58;10.45;;;2.10;;
23539;SDS011;11947;50.810;4.394;2022-07-29T00:03:24;7.00;;;2.22;;
23539;SDS011;11947;50.810;4.394;2022-07-29T00:05:49;7.43;;;1.95;;
23539;SDS011;11947;50.810;4.394;2022-07-29T00:08:18;6.45;;;2.35;;
23539;SDS011;11947;50.810;4.394;2022-07-29T00:10:44;5.68;;;2.40;;
23539;SDS011;11947;50.810;4.394;2022-07-29T00:13:10;7.90;;;2.45;;
23539;SDS011;11947;50.810;4.394;2022-07-29T00:15:37;6.45;;;1.80;;
23539;SDS011;11947;50.810;4.394;2022-07-29T00:18:02;7.70;;;2.20;;
23539;SDS011;11947;50.810;4.394;2022-07-29T00:20:28;9.85;;;2.40;;
23539;SDS011;11947;50.810;4.394;2022-07-29T00:22:54;7.90;;;2.45;;
23539;SDS011;11947;50.810;4.394;2022-07-29T00:25:20;13.30;;;2.63;;
23539;SDS011;11947;50.810;4.394;2022-07-29T00:27:45;6.07;;;2.22;;
23539;SDS011;11947;50.810;4.394;2022-07-29T00:30:11;6.53;;;2.30;;
23539;SDS011;11947;50.810;4.394;2022-07-29T00:32:37;8.95;;;2.20;;
23539;SDS011;11947;50.810;4.394;2022-07-29T00:35:03;10.50;;;2.50;;
23539;SDS011;11947;50.810;4.394;2022-07-29T00:37:48;5.28;;;2.17;;
23539;SDS011;11947;50.810;4.394;2022-07-29T00:40:13;7.13;;;2.15;;
23539;SDS011;11947;50.810;4.394;2022-07-29T00:42:46;8.10;;;2.15;;
23539;SDS011;11947;50.810;4.394;2022-07-29T00:45:14;8.60;;;2.10;;
23539;SDS011;11947;50.810;4.394;2022-07-29T00:47:41;8.48;;;2.38;;
23539;SDS011;11947;50.810;4.394;2022-07-29T00:50:08;8.07;;;2.45;;
23539;SDS011;11947;50.810;4.394;2022-07-29T00:52:35;7.15;;;2.00;;
23539;SDS011;11947;50.810;4.394;2022-07-29T00:55:03;7.65;;;2.42;;
23539;SDS011;11947;50.810;4.394;2022-07-29T00:57:29;9.93;;;2.50;;
23539;SDS011;11947;50.810;4.394;2022-07-29T00:59:55;5.88;;;2.45;;
23539;SDS011;11947;50.810;4.394;2022-07-29T01:02:21;12.40;;;2.25;;
23539;SDS011;11947;50.810;4.394;2022-07-29T01:04:47;8.55;;;2.50;;
23539;SDS011;11947;50.810;4.394;2022-07-29T01:07:13;6.07;;;2.30;;
23539;SDS011;11947;50.810;4.394;2022-07-29T01:09:38;6.35;;;1.95;;
23539;SDS011;11947;50.810;4.394;2022-07-29T01:12:05;5.55;;;2.05;;
23539;SDS011;11947;50.810;4.394;2022-07-29T01:14:32;10.40;;;2.28;;
23539;SDS011;11947;50.810;4.394;2022-07-29T01:16:59;10.50;;;2.63;;
23539;SDS011;11947;50.810;4.394;2022-07-29T01:22:06;7.45;;;2.58;;
23539;SDS011;11947;50.810;4.394;2022-07-29T01:30:25;5.00;;;2.42;;
23539;SDS011;11947;50.810;4.394;2022-07-29T01:32:56;7.43;;;2.40;;
23539;SDS011;11947;50.810;4.394;2022-07-29T01:38:13;7.22;;;2.20;;
23539;SDS011;11947;50.810;4.394;2022-07-29T01:40:54;7.15;;;2.67;;
23539;SDS011;11947;50.810;4.394;2022-07-29T01:43:31;11.10;;;2.20;;
23539;SDS011;11947;50.810;4.394;2022-07-29T01:46:02;8.90;;;2.25;;
23539;SDS011;11947;50.810;4.394;2022-07-29T01:51:31;7.32;;;2.40;;
23539;SDS011;11947;50.810;4.394;2022-07-29T01:54:05;7.03;;;2.63;;
23539;SDS011;11947;50.810;4.394;2022-07-29T01:57:12;8.68;;;2.50;;
23539;SDS011;11947;50.810;4.394;2022-07-29T01:59:40;13.18;;;2.80;;
23539;SDS011;11947;50.810;4.394;2022-07-29T02:02:07;4.82;;;2.42;;
23539;SDS011;11947;50.810;4.394;2022-07-29T02:04:36;7.00;;;2.55;;
23539;SDS011;11947;50.810;4.394;2022-07-29T02:07:05;7.60;;;2.70;;
23539;SDS011;11947;50.810;4.394;2022-07-29T02:09:33;7.95;;;2.47;;
23539;SDS011;11947;50.810;4.394;2022-07-29T02:12:02;7.70;;;2.33;;
23539;SDS011;11947;50.810;4.394;2022-07-29T02:14:33;6.85;;;2.42;;
23539;SDS011;11947;50.810;4.394;2022-07-29T02:17:01;5.35;;;2.75;;
23539;SDS011;11947;50.810;4.394;2022-07-29T02:19:29;5.10;;;2.38;;
23539;SDS011;11947;50.810;4.394;2022-07-29T02:21:57;6.35;;;2.40;;
23539;SDS011;11947;50.810;4.394;2022-07-29T02:24:25;9.98;;;2.50;;
23539;SDS011;11947;50.810;4.394;2022-07-29T02:26:52;7.85;;;2.40;;
23539;SDS011;11947;50.810;4.394;2022-07-29T02:29:21;11.43;;;2.85;;
23539;SDS011;11947;50.810;4.394;2022-07-29T02:31:51;9.07;;;2.50;;
23539;SDS011;11947;50.810;4.394;2022-07-29T02:34:19;7.60;;;2.60;;
23539;SDS011;11947;50.810;4.394;2022-07-29T02:36:46;6.72;;;2.92;;
23539;SDS011;11947;50.810;4.394;2022-07-29T02:39:15;5.13;;;2.60;;
23539;SDS011;11947;50.810;4.394;2022-07-29T02:41:44;6.72;;;2.70;;
23539;SDS011;11947;50.810;4.394;2022-07-29T02:44:17;5.90;;;2.70;;
23539;SDS011;11947;50.810;4.394;2022-07-29T02:47:34;10.00;;;2.60;;
23539;SDS011;11947;50.810;4.394;2022-07-29T02:55:30;9.07;;;2.72;;
23539;SDS011;11947;50.810;4.394;2022-07-29T03:00:27;8.13;;;2.92;;
23539;SDS011;11947;50.810;4.394;2022-07-29T03:02:55;5.53;;;2.47;;
23539;SDS011;11947;50.810;4.394;2022-07-29T03:05:24;5.90;;;2.47;;
23539;SDS011;11947;50.810;4.394;2022-07-29T03:07:52;5.90;;;2.55;;
23539;SDS011;11947;50.810;4.394;2022-07-29T03:10:25;6.07;;;2.58;;
23539;SDS011;11947;50.810;4.394;2022-07-29T03:12:51;4.78;;;2.33;;
23539;SDS011;11947;50.810;4.394;2022-07-29T03:15:17;6.43;;;2.78;;
23539;SDS011;11947;50.810;4.394;2022-07-29T03:17:43;5.72;;;2.70;;
23539;SDS011;11947;50.810;4.394;2022-07-29T03:20:10;8.90;;;3.17;;
23539;SDS011;11947;50.810;4.394;2022-07-29T03:22:41;8.68;;;2.92;;
23539;SDS011;11947;50.810;4.394;2022-07-29T03:25:14;7.55;;;2.60;;
23539;SDS011;11947;50.810;4.394;2022-07-29T03:27:41;9.40;;;2.72;;
23539;SDS011;11947;50.810;4.394;2022-07-29T03:30:08;6.78;;;2.83;;
23539;SDS011;11947;50.810;4.394;2022-07-29T03:32:34;8.40;;;3.17;;
23539;SDS011;11947;50.810;4.394;2022-07-29T03:35:01;6.70;;;3.08;;
23539;SDS011;11947;50.810;4.394;2022-07-29T03:37:27;9.52;;;3.20;;
23539;SDS011;11947;50.810;4.394;2022-07-29T03:39:53;9.63;;;2.80;;
23539;SDS011;11947;50.810;4.394;2022-07-29T03:42:21;7.05;;;2.90;;
23539;SDS011;11947;50.810;4.394;2022-07-29T03:44:50;6.70;;;2.63;;
23539;SDS011;11947;50.810;4.394;2022-07-29T03:47:18;6.47;;;2.90;;
23539;SDS011;11947;50.810;4.394;2022-07-29T03:49:48;5.53;;;2.70;;
23539;SDS011;11947;50.810;4.394;2022-07-29T03:52:16;6.60;;;2.60;;
23539;SDS011;11947;50.810;4.394;2022-07-29T03:54:42;3.65;;;2.42;;
23539;SDS011;11947;50.810;4.394;2022-07-29T03:57:09;6.38;;;2.90;;
23539;SDS011;11947;50.810;4.394;2022-07-29T03:59:36;6.57;;;3.05;;
23539;SDS011;11947;50.810;4.394;2022-07-29T04:02:03;5.95;;;2.95;;
23539;SDS011;11947;50.810;4.394;2022-07-29T04:04:32;7.07;;;2.72;;
23539;SDS011;11947;50.810;4.394;2022-07-29T04:06:59;8.35;;;3.03;;
23539;SDS011;11947;50.810;4.394;2022-07-29T04:09:25;11.20;;;3.75;;
23539;SDS011;11947;50.810;4.394;2022-07-29T04:11:51;7.07;;;3.03;;
23539;SDS011;11947;50.810;4.394;2022-07-29T04:14:18;6.85;;;2.60;;
23539;SDS011;11947;50.810;4.394;2022-07-29T04:16:43;7.13;;;3.30;;
23539;SDS011;11947;50.810;4.394;2022-07-29T04:19:09;8.82;;;2.80;;
23539;SDS011;11947;50.810;4.394;2022-07-29T04:21:38;12.45;;;3.38;;
23539;SDS011;11947;50.810;4.394;2022-07-29T04:24:05;6.40;;;3.15;;
23539;SDS011;11947;50.810;4.394;2022-07-29T04:26:31;8.32;;;3.08;;
23539;SDS011;11947;50.810;4.394;2022-07-29T04:28:57;8.45;;;3.08;;
23539;SDS011;11947;50.810;4.394;2022-07-29T04:31:23;10.02;;;3.13;;
23539;SDS011;11947;50.810;4.394;2022-07-29T04:33:49;6.80;;;3.00;;
23539;SDS011;11947;50.810;4.394;2022-07-29T04:36:14;9.10;;;3.03;;
23539;SDS011;11947;50.810;4.394;2022-07-29T04:38:40;6.82;;;3.35;;
23539;SDS011;11947;50.810;4.394;2022-07-29T04:41:05;9.40;;;3.08;;
23539;SDS011;11947;50.810;4.394;2022-07-29T04:43:32;6.00;;;3.65;;
23539;SDS011;11947;50.810;4.394;2022-07-29T04:45:58;9.95;;;3.42;;
23539;SDS011;11947;50.810;4.394;2022-07-29T04:48:25;8.52;;;3.33;;
23539;SDS011;11947;50.810;4.394;2022-07-29T04:50:51;5.80;;;3.30;;
23539;SDS011;11947;50.810;4.394;2022-07-29T04:53:17;9.43;;;3.50;;
23539;SDS011;11947;50.810;4.394;2022-07-29T04:55:42;5.90;;;3.45;;
23539;SDS011;11947;50.810;4.394;2022-07-29T04:58:09;8.40;;;3.50;;
23539;SDS011;11947;50.810;4.394;2022-07-29T05:00:35;9.52;;;4.07;;
23539;SDS011;11947;50.810;4.394;2022-07-29T05:03:01;8.63;;;3.35;;
23539;SDS011;11947;50.810;4.394;2022-07-29T05:05:27;14.60;;;3.97;;
23539;SDS011;11947;50.810;4.394;2022-07-29T05:07:52;13.48;;;3.90;;
23539;SDS011;11947;50.810;4.394;2022-07-29T05:10:18;8.27;;;4.07;;
23539;SDS011;11947;50.810;4.394;2022-07-29T05:12:44;9.98;;;3.72;;
23539;SDS011;11947;50.810;4.394;2022-07-29T05:15:09;12.95;;;4.43;;
23539;SDS011;11947;50.810;4.394;2022-07-29T05:17:35;11.50;;;4.00;;
23539;SDS011;11947;50.810;4.394;2022-07-29T05:20:01;9.10;;;4.32;;
23539;SDS011;11947;50.810;4.394;2022-07-29T05:22:26;11.55;;;4.40;;
23539;SDS011;11947;50.810;4.394;2022-07-29T05:24:52;9.77;;;4.22;;
23539;SDS011;11947;50.810;4.394;2022-07-29T05:27:17;9.60;;;4.28;;
23539;SDS011;11947;50.810;4.394;2022-07-29T05:29:43;16.05;;;4.80;;
23539;SDS011;11947;50.810;4.394;2022-07-29T05:32:09;11.05;;;4.45;;
23539;SDS011;11947;50.810;4.394;2022-07-29T05:34:35;8.50;;;4.32;;
23539;SDS011;11947;50.810;4.394;2022-07-29T05:37:00;7.03;;;4.57;;
23539;SDS011;11947;50.810;4.394;2022-07-29T05:39:26;14.60;;;4.75;;
23539;SDS011;11947;50.810;4.394;2022-07-29T05:41:51;10.20;;;4.30;;
23539;SDS011;11947;50.810;4.394;2022-07-29T05:44:17;12.27;;;4.60;;
23539;SDS011;11947;50.810;4.394;2022-07-29T05:46:43;9.18;;;4.50;;
23539;SDS011;11947;50.810;4.394;2022-07-29T05:49:08;15.75;;;5.03;;
23539;SDS011;11947;50.810;4.394;2022-07-29T05:51:34;10.95;;;4.60;;
23539;SDS011;11947;50.810;4.394;2022-07-29T05:54:00;10.57;;;5.03;;
23539;SDS011;11947;50.810;4.394;2022-07-29T05:56:26;13.10;;;4.93;;
23539;SDS011;11947;50.810;4.394;2022-07-29T05:58:52;13.40;;;4.70;;
23539;SDS011;11947;50.810;4.394;2022-07-29T06:01:18;9.13;;;4.90;;
23539;SDS011;11947;50.810;4.394;2022-07-29T06:03:43;11.98;;;5.28;;
23539;SDS011;11947;50.810;4.394;2022-07-29T06:06:09;12.45;;;4.97;;
23539;SDS011;11947;50.810;4.394;2022-07-29T06:08:35;12.73;;;4.95;;
23539;SDS011;11947;50.810;4.394;2022-07-29T06:11:01;12.50;;;5.32;;
23539;SDS011;11947;50.810;4.394;2022-07-29T06:13:28;14.32;;;4.82;;
23539;SDS011;11947;50.810;4.394;2022-07-29T06:15:54;6.60;;;4.45;;
23539;SDS011;11947;50.810;4.394;2022-07-29T06:18:20;13.18;;;5.18;;
23539;SDS011;11947;50.810;4.394;2022-07-29T06:20:48;9.02;;;5.03;;
23539;SDS011;11947;50.810;4.394;2022-07-29T06:23:15;10.77;;;4.78;;
23539;SDS011;11947;50.810;4.394;2022-07-29T06:25:40;7.95;;;4.53;;
23539;SDS011;11947;50.810;4.394;2022-07-29T06:28:06;7.88;;;4.80;;
23539;SDS011;11947;50.810;4.394;2022-07-29T06:30:32;9.02;;;4.85;;
23539;SDS011;11947;50.810;4.394;2022-07-29T06:32:57;8.95;;;4.95;;
23539;SDS011;11947;50.810;4.394;2022-07-29T06:35:23;8.57;;;4.43;;
23539;SDS011;11947;50.810;4.394;2022-07-29T06:37:48;8.23;;;5.25;;
23539;SDS011;11947;50.810;4.394;2022-07-29T06:40:14;10.75;;;4.78;;
23539;SDS011;11947;50.810;4.394;2022-07-29T06:42:59;9.05;;;5.07;;
23539;SDS011;11947;50.810;4.394;2022-07-29T06:45:25;14.32;;;5.30;;
23539;SDS011;11947;50.810;4.394;2022-07-29T06:47:51;9.30;;;4.75;;
23539;SDS011;11947;50.810;4.394;2022-07-29T06:50:17;10.65;;;5.25;;
23539;SDS011;11947;50.810;4.394;2022-07-29T06:52:43;9.13;;;5.00;;
23539;SDS011;11947;50.810;4.394;2022-07-29T06:55:08;7.50;;;5.13;;
23539;SDS011;11947;50.810;4.394;2022-07-29T06:57:34;8.13;;;5.18;;
23539;SDS011;11947;50.810;4.394;2022-07-29T07:00:00;9.55;;;5.10;;
23539;SDS011;11947;50.810;4.394;2022-07-29T07:02:26;12.38;;;5.25;;
23539;SDS011;11947;50.810;4.394;2022-07-29T07:04:51;12.60;;;5.00;;
23539;SDS011;11947;50.810;4.394;2022-07-29T07:07:17;8.73;;;4.88;;
23539;SDS011;11947;50.810;4.394;2022-07-29T07:09:43;9.15;;;4.72;;
23539;SDS011;11947;50.810;4.394;2022-07-29T07:12:08;8.90;;;4.95;;
23539;SDS011;11947;50.810;4.394;2022-07-29T07:14:34;10.00;;;4.55;;
23539;SDS011;11947;50.810;4.394;2022-07-29T07:17:00;8.05;;;5.13;;
23539;SDS011;11947;50.810;4.394;2022-07-29T07:19:28;7.07;;;4.70;;
23539;SDS011;11947;50.810;4.394;2022-07-29T07:21:53;13.88;;;4.80;;
23539;SDS011;11947;50.810;4.394;2022-07-29T07:24:19;7.35;;;4.13;;
23539;SDS011;11947;50.810;4.394;2022-07-29T07:26:45;9.25;;;5.10;;
23539;SDS011;11947;50.810;4.394;2022-07-29T07:29:10;8.70;;;4.80;;
23539;SDS011;11947;50.810;4.394;2022-07-29T07:31:36;10.80;;;4.72;;
23539;SDS011;11947;50.810;4.394;2022-07-29T07:34:02;11.05;;;5.05;;
23539;SDS011;11947;50.810;4.394;2022-07-29T07:36:28;11.73;;;5.32;;
23539;SDS011;11947;50.810;4.394;2022-07-29T07:38:54;8.90;;;5.28;;
23539;SDS011;11947;50.810;4.394;2022-07-29T07:41:20;9.00;;;5.57;;
23539;SDS011;11947;50.810;4.394;2022-07-29T07:43:46;8.68;;;4.53;;
23539;SDS011;11947;50.810;4.394;2022-07-29T07:46:11;9.20;;;5.15;;
23539;SDS011;11947;50.810;4.394;2022-07-29T07:48:37;8.25;;;4.90;;
23539;SDS011;11947;50.810;4.394;2022-07-29T07:51:03;6.13;;;4.28;;
23539;SDS011;11947;50.810;4.394;2022-07-29T07:53:28;9.73;;;4.85;;
23539;SDS011;11947;50.810;4.394;2022-07-29T07:55:54;9.55;;;4.57;;
23539;SDS011;11947;50.810;4.394;2022-07-29T07:58:20;9.00;;;4.72;;
23539;SDS011;11947;50.810;4.394;2022-07-29T08:00:46;14.07;;;5.43;;
23539;SDS011;11947;50.810;4.394;2022-07-29T08:03:12;12.88;;;6.32;;
23539;SDS011;11947;50.810;4.394;2022-07-29T08:05:38;12.55;;;5.03;;
23539;SDS011;11947;50.810;4.394;2022-07-29T08:08:05;7.15;;;4.63;;
23539;SDS011;11947;50.810;4.394;2022-07-29T08:10:32;16.63;;;4.90;;
23539;SDS011;11947;50.810;4.394;2022-07-29T08:13:16;9.13;;;4.35;;
23539;SDS011;11947;50.810;4.394;2022-07-29T08:15:43;9.43;;;4.90;;
23539;SDS011;11947;50.810;4.394;2022-07-29T08:18:10;9.00;;;4.95;;
23539;SDS011;11947;50.810;4.394;2022-07-29T08:20:36;11.52;;;4.85;;
23539;SDS011;11947;50.810;4.394;2022-07-29T08:23:04;12.85;;;4.32;;
23539;SDS011;11947;50.810;4.394;2022-07-29T08:25:33;8.55;;;4.60;;
23539;SDS011;11947;50.810;4.394;2022-07-29T08:28:00;12.60;;;5.00;;
23539;SDS011;11947;50.810;4.394;2022-07-29T08:30:26;7.93;;;5.20;;
23539;SDS011;11947;50.810;4.394;2022-07-29T08:32:51;12.20;;;4.95;;
23539;SDS011;11947;50.810;4.394;2022-07-29T08:35:18;9.95;;;4.65;;
23539;SDS011;11947;50.810;4.394;2022-07-29T08:37:44;10.90;;;4.57;;
23539;SDS011;11947;50.810;4.394;2022-07-29T08:40:10;10.40;;;4.30;;
23539;SDS011;11947;50.810;4.394;2022-07-29T08:42:36;8.88;;;4.78;;
23539;SDS011;11947;50.810;4.394;2022-07-29T08:45:02;10.38;;;4.45;;
23539;SDS011;11947;50.810;4.394;2022-07-29T08:47:29;10.95;;;4.80;;
23539;SDS011;11947;50.810;4.394;2022-07-29T08:49:55;12.95;;;4.30;;
23539;SDS011;11947;50.810;4.394;2022-07-29T08:52:20;6.78;;;4.25;;
23539;SDS011;11947;50.810;4.394;2022-07-29T08:54:49;10.95;;;3.55;;
23539;SDS011;11947;50.810;4.394;2022-07-29T08:57:17;7.55;;;3.70;;
23539;SDS011;11947;50.810;4.394;2022-07-29T08:59:44;7.68;;;3.25;;
23539;SDS011;11947;50.810;4.394;2022-07-29T09:02:15;9.25;;;3.63;;
23539;SDS011;11947;50.810;4.394;2022-07-29T09:04:47;6.07;;;3.42;;
23539;SDS011;11947;50.810;4.394;2022-07-29T09:07:17;7.25;;;3.15;;
23539;SDS011;11947;50.810;4.394;2022-07-29T09:09:43;9.68;;;3.60;;
23539;SDS011;11947;50.810;4.394;2022-07-29T09:12:10;4.32;;;2.88;;
23539;SDS011;11947;50.810;4.394;2022-07-29T09:14:39;9.93;;;3.00;;
23539;SDS011;11947;50.810;4.394;2022-07-29T09:17:05;5.38;;;2.80;;
23539;SDS011;11947;50.810;4.394;2022-07-29T09:19:36;7.13;;;2.55;;
23539;SDS011;11947;50.810;4.394;2022-07-29T09:22:05;6.45;;;2.78;;
23539;SDS011;11947;50.810;4.394;2022-07-29T09:24:44;6.65;;;2.50;;
23539;SDS011;11947;50.810;4.394;2022-07-29T09:27:22;10.98;;;2.65;;
23539;SDS011;11947;50.810;4.394;2022-07-29T09:30:06;8.65;;;2.60;;
23539;SDS011;11947;50.810;4.394;2022-07-29T09:32:56;3.90;;;2.33;;
23539;SDS011;11947;50.810;4.394;2022-07-29T09:35:26;8.60;;;3.00;;
23539;SDS011;11947;50.810;4.394;2022-07-29T09:37:53;5.80;;;2.45;;
23539;SDS011;11947;50.810;4.394;2022-07-29T09:40:20;5.03;;;2.25;;
23539;SDS011;11947;50.810;4.394;2022-07-29T09:42:47;6.47;;;2.45;;
23539;SDS011;11947;50.810;4.394;2022-07-29T09:45:25;6.68;;;2.47;;
23539;SDS011;11947;50.810;4.394;2022-07-29T09:47:53;4.10;;;2.50;;
23539;SDS011;11947;50.810;4.394;2022-07-29T09:50:20;7.63;;;2.40;;
23539;SDS011;11947;50.810;4.394;2022-07-29T09:52:53;4.72;;;2.80;;
23539;SDS011;11947;50.810;4.394;2022-07-29T09:55:19;7.70;;;2.72;;
23539;SDS011;11947;50.810;4.394;2022-07-29T09:57:45;5.78;;;2.15;;
23539;SDS011;11947;50.810;4.394;2022-07-29T10:00:16;5.35;;;2.80;;
23539;SDS011;11947;50.810;4.394;2022-07-29T10:02:44;8.23;;;3.38;;
23539;SDS011;11947;50.810;4.394;2022-07-29T10:07:51;6.53;;;2.83;;
23539;SDS011;11947;50.810;4.394;2022-07-29T10:10:28;8.32;;;2.92;;
23539;SDS011;11947;50.810;4.394;2022-07-29T10:15:21;6.65;;;2.70;;
23539;SDS011;11947;50.810;4.394;2022-07-29T10:17:48;7.03;;;3.33;;
23539;SDS011;11947;50.810;4.394;2022-07-29T10:20:15;7.32;;;2.75;;
23539;SDS011;11947;50.810;4.394;2022-07-29T10:22:42;11.85;;;2.88;;
23539;SDS011;11947;50.810;4.394;2022-07-29T10:25:09;10.23;;;2.80;;
23539;SDS011;11947;50.810;4.394;2022-07-29T10:27:36;4.43;;;2.70;;
23539;SDS011;11947;50.810;4.394;2022-07-29T10:30:02;6.13;;;3.20;;
23539;SDS011;11947;50.810;4.394;2022-07-29T10:40:41;7.10;;;2.88;;
23539;SDS011;11947;50.810;4.394;2022-07-29T10:43:31;4.50;;;3.45;;
23539;SDS011;11947;50.810;4.394;2022-07-29T10:46:01;6.97;;;3.25;;
23539;SDS011;11947;50.810;4.394;2022-07-29T10:48:28;6.28;;;2.90;;
23539;SDS011;11947;50.810;4.394;2022-07-29T10:50:58;4.75;;;3.08;;
23539;SDS011;11947;50.810;4.394;2022-07-29T10:53:47;6.97;;;3.00;;
23539;SDS011;11947;50.810;4.394;2022-07-29T10:56:27;7.07;;;2.70;;
23539;SDS011;11947;50.810;4.394;2022-07-29T11:01:51;5.97;;;3.28;;
23539;SDS011;11947;50.810;4.394;2022-07-29T11:07:08;8.57;;;3.20;;
23539;SDS011;11947;50.810;4.394;2022-07-29T11:09:34;5.95;;;3.20;;
23539;SDS011;11947;50.810;4.394;2022-07-29T11:12:00;6.47;;;3.55;;
23539;SDS011;11947;50.810;4.394;2022-07-29T11:17:17;6.60;;;3.28;;
23539;SDS011;11947;50.810;4.394;2022-07-29T11:19:43;8.48;;;3.40;;
23539;SDS011;11947;50.810;4.394;2022-07-29T11:22:09;4.60;;;3.17;;
23539;SDS011;11947;50.810;4.394;2022-07-29T11:24:36;6.30;;;3.22;;
23539;SDS011;11947;50.810;4.394;2022-07-29T11:27:20;5.03;;;3.97;;
23539;SDS011;11947;50.810;4.394;2022-07-29T11:29:57;8.23;;;3.30;;
23539;SDS011;11947;50.810;4.394;2022-07-29T11:32:49;7.68;;;3.90;;
23539;SDS011;11947;50.810;4.394;2022-07-29T11:37:42;6.47;;;3.63;;
23539;SDS011;11947;50.810;4.394;2022-07-29T11:40:10;7.10;;;4.55;;
23539;SDS011;11947;50.810;4.394;2022-07-29T11:47:38;8.38;;;4.57;;
23539;SDS011;11947;50.810;4.394;2022-07-29T11:50:17;8.38;;;4.80;;
23539;SDS011;11947;50.810;4.394;2022-07-29T11:52:55;7.78;;;4.22;;
23539;SDS011;11947;50.810;4.394;2022-07-29T11:55:22;6.93;;;4.35;;
23539;SDS011;11947;50.810;4.394;2022-07-29T11:57:49;9.48;;;4.20;;
23539;SDS011;11947;50.810;4.394;2022-07-29T12:00:25;6.07;;;3.50;;
23539;SDS011;11947;50.810;4.394;2022-07-29T12:02:56;8.15;;;4.32;;
23539;SDS011;11947;50.810;4.394;2022-07-29T12:05:30;5.40;;;3.17;;
23539;SDS011;11947;50.810;4.394;2022-07-29T12:08:05;6.28;;;3.90;;
23539;SDS011;11947;50.810;4.394;2022-07-29T12:10:32;5.88;;;4.88;;
23539;SDS011;11947;50.810;4.394;2022-07-29T12:12:58;12.15;;;4.10;;
23539;SDS011;11947;50.810;4.394;2022-07-29T12:15:23;11.57;;;4.70;;
23539;SDS011;11947;50.810;4.394;2022-07-29T12:17:50;7.50;;;4.90;;
23539;SDS011;11947;50.810;4.394;2022-07-29T12:20:26;6.20;;;4.38;;
23539;SDS011;11947;50.810;4.394;2022-07-29T12:22:53;11.40;;;4.93;;
23539;SDS011;11947;50.810;4.394;2022-07-29T12:25:20;8.02;;;5.20;;
23539;SDS011;11947;50.810;4.394;2022-07-29T12:27:57;7.75;;;5.15;;
23539;SDS011;11947;50.810;4.394;2022-07-29T12:30:37;10.05;;;4.85;;
23539;SDS011;11947;50.810;4.394;2022-07-29T12:33:12;9.35;;;4.25;;
23539;SDS011;11947;50.810;4.394;2022-07-29T12:35:42;5.93;;;4.70;;
23539;SDS011;11947;50.810;4.394;2022-07-29T12:38:12;6.30;;;5.40;;
23539;SDS011;11947;50.810;4.394;2022-07-29T12:40:39;11.75;;;4.80;;
23539;SDS011;11947;50.810;4.394;2022-07-29T12:43:05;6.72;;;5.32;;
23539;SDS011;11947;50.810;4.394;2022-07-29T12:45:32;8.95;;;5.40;;
23539;SDS011;11947;50.810;4.394;2022-07-29T12:47:58;9.23;;;7.13;;
23539;SDS011;11947;50.810;4.394;2022-07-29T12:50:24;7.15;;;5.22;;
23539;SDS011;11947;50.810;4.394;2022-07-29T12:52:51;7.03;;;4.90;;
23539;SDS011;11947;50.810;4.394;2022-07-29T12:55:37;12.55;;;4.70;;
23539;SDS011;11947;50.810;4.394;2022-07-29T12:58:03;10.93;;;4.50;;
23539;SDS011;11947;50.810;4.394;2022-07-29T13:00:29;8.00;;;4.00;;
23539;SDS011;11947;50.810;4.394;2022-07-29T13:02:59;8.43;;;4.22;;
23539;SDS011;11947;50.810;4.394;2022-07-29T13:05:43;7.22;;;3.67;;
23539;SDS011;11947;50.810;4.394;2022-07-29T13:08:10;7.80;;;3.80;;
23539;SDS011;11947;50.810;4.394;2022-07-29T13:10:40;6.63;;;3.75;;
23539;SDS011;11947;50.810;4.394;2022-07-29T13:13:07;8.02;;;3.63;;
23539;SDS011;11947;50.810;4.394;2022-07-29T13:15:38;8.05;;;3.20;;
23539;SDS011;11947;50.810;4.394;2022-07-29T13:20:53;7.97;;;3.40;;
23539;SDS011;11947;50.810;4.394;2022-07-29T13:23:19;6.22;;;2.95;;
23539;SDS011;11947;50.810;4.394;2022-07-29T13:25:44;6.15;;;3.85;;
23539;SDS011;11947;50.810;4.394;2022-07-29T13:28:10;7.55;;;3.28;;
23539;SDS011;11947;50.810;4.394;2022-07-29T13:30:36;10.95;;;3.63;;
23539;SDS011;11947;50.810;4.394;2022-07-29T13:33:02;6.88;;;2.95;;
23539;SDS011;11947;50.810;4.394;2022-07-29T13:35:28;8.32;;;3.45;;
23539;SDS011;11947;50.810;4.394;2022-07-29T13:37:54;5.15;;;2.85;;
23539;SDS011;11947;50.810;4.394;2022-07-29T13:40:20;7.93;;;2.75;;
23539;SDS011;11947;50.810;4.394;2022-07-29T13:42:46;5.30;;;2.90;;
23539;SDS011;11947;50.810;4.394;2022-07-29T13:45:12;8.13;;;2.80;;
23539;SDS011;11947;50.810;4.394;2022-07-29T13:47:38;7.30;;;3.00;;
23539;SDS011;11947;50.810;4.394;2022-07-29T13:50:04;10.48;;;3.47;;
23539;SDS011;11947;50.810;4.394;2022-07-29T13:52:32;8.25;;;3.33;;
23539;SDS011;11947;50.810;4.394;2022-07-29T13:54:58;7.78;;;3.42;;
23539;SDS011;11947;50.810;4.394;2022-07-29T13:57:24;6.20;;;3.25;;
23539;SDS011;11947;50.810;4.394;2022-07-29T13:59:50;8.50;;;3.47;;
23539;SDS011;11947;50.810;4.394;2022-07-29T14:02:16;7.53;;;3.33;;
23539;SDS011;11947;50.810;4.394;2022-07-29T14:04:41;6.55;;;3.22;;
23539;SDS011;11947;50.810;4.394;2022-07-29T14:07:07;7.90;;;3.40;;
23539;SDS011;11947;50.810;4.394;2022-07-29T14:09:33;9.52;;;3.83;;
23539;SDS011;11947;50.810;4.394;2022-07-29T14:11:58;6.18;;;4.03;;
23539;SDS011;11947;50.810;4.394;2022-07-29T14:14:24;5.55;;;3.38;;
23539;SDS011;11947;50.810;4.394;2022-07-29T14:16:50;6.30;;;3.95;;
23539;SDS011;11947;50.810;4.394;2022-07-29T14:19:15;6.63;;;3.30;;
23539;SDS011;11947;50.810;4.394;2022-07-29T14:21:41;6.18;;;3.25;;
23539;SDS011;11947;50.810;4.394;2022-07-29T14:24:07;5.32;;;3.55;;
23539;SDS011;11947;50.810;4.394;2022-07-29T14:26:32;5.82;;;3.75;;
23539;SDS011;11947;50.810;4.394;2022-07-29T14:28:58;6.47;;;3.17;;
23539;SDS011;11947;50.810;4.394;2022-07-29T14:31:24;7.13;;;2.88;;
23539;SDS011;11947;50.810;4.394;2022-07-29T14:33:49;5.78;;;3.00;;
23539;SDS011;11947;50.810;4.394;2022-07-29T14:36:15;6.05;;;2.90;;
23539;SDS011;11947;50.810;4.394;2022-07-29T14:38:40;5.55;;;3.13;;
23539;SDS011;11947;50.810;4.394;2022-07-29T14:41:06;6.35;;;2.42;;
23539;SDS011;11947;50.810;4.394;2022-07-29T14:43:33;3.42;;;2.40;;
23539;SDS011;11947;50.810;4.394;2022-07-29T14:46:01;4.40;;;2.70;;
23539;SDS011;11947;50.810;4.394;2022-07-29T14:48:27;4.80;;;2.50;;
23539;SDS011;11947;50.810;4.394;2022-07-29T14:50:53;6.70;;;2.60;;
23539;SDS011;11947;50.810;4.394;2022-07-29T14:53:21;6.80;;;2.60;;
23539;SDS011;11947;50.810;4.394;2022-07-29T14:55:48;4.50;;;2.28;;
23539;SDS011;11947;50.810;4.394;2022-07-29T14:58:14;9.57;;;2.72;;
23539;SDS011;11947;50.810;4.394;2022-07-29T15:00:40;5.88;;;2.50;;
23539;SDS011;11947;50.810;4.394;2022-07-29T15:03:05;6.05;;;2.40;;
23539;SDS011;11947;50.810;4.394;2022-07-29T15:05:34;7.72;;;2.95;;
23539;SDS011;11947;50.810;4.394;2022-07-29T15:08:00;8.48;;;2.63;;
23539;SDS011;11947;50.810;4.394;2022-07-29T15:10:25;7.20;;;2.78;;
23539;SDS011;11947;50.810;4.394;2022-07-29T15:12:52;6.75;;;2.58;;
23539;SDS011;11947;50.810;4.394;2022-07-29T15:15:18;7.47;;;2.50;;
23539;SDS011;11947;50.810;4.394;2022-07-29T15:17:43;8.45;;;2.50;;
23539;SDS011;11947;50.810;4.394;2022-07-29T15:20:10;16.38;;;2.70;;
23539;SDS011;11947;50.810;4.394;2022-07-29T15:22:36;6.60;;;2.70;;
23539;SDS011;11947;50.810;4.394;2022-07-29T15:25:03;8.27;;;2.50;;
23539;SDS011;11947;50.810;4.394;2022-07-29T15:27:29;5.25;;;2.70;;
23539;SDS011;11947;50.810;4.394;2022-07-29T15:29:55;7.30;;;2.55;;
23539;SDS011;11947;50.810;4.394;2022-07-29T15:32:21;8.23;;;3.03;;
23539;SDS011;11947;50.810;4.394;2022-07-29T15:34:50;7.50;;;2.70;;
23539;SDS011;11947;50.810;4.394;2022-07-29T15:37:16;7.10;;;2.72;;
23539;SDS011;11947;50.810;4.394;2022-07-29T15:39:42;8.85;;;2.97;;
23539;SDS011;11947;50.810;4.394;2022-07-29T15:42:07;9.18;;;2.58;;
23539;SDS011;11947;50.810;4.394;2022-07-29T15:44:33;4.18;;;2.60;;